Time,TemperatureF,DewpointF,PressureIn,WindDirection,WindDirectionDegrees,WindSpeedMPH,WindSpeedGustMPH,Humidity,HourlyPrecipIn,Conditions,Clouds,dailyrainin,SoftwareType,DateUTC
2013-05-10 00:04:00,37.0,31.0,30.84,NNE,28,0.0,1.0,79,0.00,,,0.00,Meteo,2013-05-10 05:04:00,
2013-05-10 00:09:00,37.0,31.0,30.84,North,0,0.0,0.0,79,0.00,,,0.00,Meteo,2013-05-10 05:09:00,
2013-05-10 00:14:00,37.0,31.0,30.84,North,0,0.0,0.0,80,0.00,,,0.00,Meteo,2013-05-10 05:14:00,
2013-05-10 00:19:00,36.0,30.0,30.84,North,0,0.0,0.0,80,0.00,,,0.00,Meteo,2013-05-10 05:19:00,
2013-05-10 00:24:00,36.0,31.0,30.84,NE,35,2.0,3.0,81,0.00,,,0.00,Meteo,2013-05-10 05:24:00,
2013-05-10 00:29:00,37.0,32.0,30.84,NE,53,0.0,1.0,82,0.00,,,0.00,Meteo,2013-05-10 05:29:00,
2013-05-10 00:34:00,37.0,32.0,30.84,North,9,1.0,2.0,81,0.00,,,0.00,Meteo,2013-05-10 05:34:00,
2013-05-10 00:39:00,37.0,32.0,30.84,NNE,17,1.0,2.0,82,0.00,,,0.00,Meteo,2013-05-10 05:39:00,
2013-05-10 00:44:00,37.0,32.0,30.84,NNE,19,2.0,3.0,82,0.00,,,0.00,Meteo,2013-05-10 05:44:00,
2013-05-10 00:49:00,37.0,32.0,30.84,North,11,2.0,3.0,82,0.00,,,0.00,Meteo,2013-05-10 05:49:00,
2013-05-10 00:54:00,37.0,32.0,30.84,NNE,31,2.0,3.0,82,0.00,,,0.00,Meteo,2013-05-10 05:54:00,
2013-05-10 00:59:00,37.0,32.0,30.84,North,9,2.0,3.0,82,0.00,,,0.00,Meteo,2013-05-10 05:59:00,
2013-05-10 01:04:00,37.0,32.0,30.84,NE,52,2.0,3.0,82,0.00,,,0.00,Meteo,2013-05-10 06:04:00,
2013-05-10 01:09:00,37.0,32.0,30.84,NE,35,2.0,4.0,82,0.00,,,0.00,Meteo,2013-05-10 06:09:00,
2013-05-10 01:14:00,37.0,32.0,30.84,NNE,22,1.0,2.0,82,0.00,,,0.00,Meteo,2013-05-10 06:14:00,
2013-05-10 01:19:00,37.0,32.0,30.84,NNE,32,1.0,2.0,83,0.00,,,0.00,Meteo,2013-05-10 06:19:00,
2013-05-10 01:24:00,37.0,32.0,30.84,North,10,2.0,3.0,83,0.00,,,0.00,Meteo,2013-05-10 06:24:00,
2013-05-10 01:29:00,37.0,32.0,30.84,NNE,27,2.0,3.0,83,0.00,,,0.00,Meteo,2013-05-10 06:29:00,
2013-05-10 01:34:00,37.0,32.0,30.84,NE,40,2.0,3.0,83,0.00,,,0.00,Meteo,2013-05-10 06:34:00,
2013-05-10 01:39:00,37.0,32.0,30.84,NNE,16,2.0,3.0,83,0.00,,,0.00,Meteo,2013-05-10 06:39:00,
2013-05-10 01:44:00,36.0,32.0,30.83,NE,34,2.0,2.0,84,0.00,,,0.00,Meteo,2013-05-10 06:44:00,
2013-05-10 01:49:00,36.0,32.0,30.83,NE,39,1.0,2.0,84,0.00,,,0.00,Meteo,2013-05-10 06:49:00,
2013-05-10 01:54:00,36.0,32.0,30.83,NNE,28,2.0,3.0,84,0.00,,,0.00,Meteo,2013-05-10 06:54:00,
2013-05-10 01:59:00,36.0,32.0,30.83,NNE,25,1.0,2.0,84,0.00,,,0.00,Meteo,2013-05-10 06:59:00,
2013-05-10 02:04:00,36.0,32.0,30.83,ENE,72,1.0,3.0,84,0.00,,,0.00,Meteo,2013-05-10 07:04:00,
2013-05-10 02:09:00,36.0,32.0,30.83,NE,51,2.0,3.0,84,0.00,,,0.00,Meteo,2013-05-10 07:09:00,
2013-05-10 02:14:00,36.0,31.0,30.82,NE,41,2.0,3.0,83,0.00,,,0.00,Meteo,2013-05-10 07:14:00,
2013-05-10 02:19:00,36.0,31.0,30.82,NNE,29,3.0,5.0,82,0.00,,,0.00,Meteo,2013-05-10 07:19:00,
2013-05-10 02:24:00,36.0,31.0,30.82,NNE,29,1.0,3.0,81,0.00,,,0.00,Meteo,2013-05-10 07:24:00,
2013-05-10 02:29:00,37.0,32.0,30.83,ENE,61,2.0,3.0,81,0.00,,,0.00,Meteo,2013-05-10 07:29:00,
2013-05-10 02:34:00,37.0,31.0,30.82,NE,41,2.0,4.0,80,0.00,,,0.00,Meteo,2013-05-10 07:34:00,
2013-05-10 02:39:00,37.0,31.0,30.83,NNE,18,2.0,3.0,80,0.00,,,0.00,Meteo,2013-05-10 07:39:00,
2013-05-10 02:44:00,37.0,31.0,30.82,NNE,15,2.0,3.0,80,0.00,,,0.00,Meteo,2013-05-10 07:44:00,
2013-05-10 02:49:00,37.0,32.0,30.82,NE,39,1.0,2.0,81,0.00,,,0.00,Meteo,2013-05-10 07:49:00,
2013-05-10 02:54:00,37.0,32.0,30.82,NE,35,0.0,2.0,81,0.00,,,0.00,Meteo,2013-05-10 07:54:00,
2013-05-10 02:59:00,37.0,32.0,30.82,NE,45,1.0,2.0,81,0.00,,,0.00,Meteo,2013-05-10 07:59:00,
2013-05-10 03:04:00,36.0,30.0,30.82,NE,52,1.0,3.0,80,0.00,,,0.00,Meteo,2013-05-10 08:04:00,
2013-05-10 03:09:00,37.0,32.0,30.82,ENE,67,5.0,7.0,81,0.00,,,0.00,Meteo,2013-05-10 08:09:00,
2013-05-10 03:14:00,37.0,31.0,30.82,ENE,65,5.0,10.0,80,0.00,,,0.00,Meteo,2013-05-10 08:14:00,
2013-05-10 03:19:00,37.0,31.0,30.82,NE,35,4.0,6.0,79,0.00,,,0.00,Meteo,2013-05-10 08:19:00,
2013-05-10 03:24:00,37.0,31.0,30.82,NE,46,3.0,4.0,78,0.00,,,0.00,Meteo,2013-05-10 08:24:00,
2013-05-10 03:29:00,37.0,31.0,30.82,NE,48,4.0,7.0,78,0.00,,,0.00,Meteo,2013-05-10 08:29:00,
2013-05-10 03:34:00,37.0,31.0,30.82,NE,41,3.0,5.0,78,0.00,,,0.00,Meteo,2013-05-10 08:34:00,
2013-05-10 03:39:00,37.0,31.0,30.82,NE,38,2.0,5.0,78,0.00,,,0.00,Meteo,2013-05-10 08:39:00,
2013-05-10 03:44:00,37.0,31.0,30.82,NE,36,4.0,6.0,78,0.00,,,0.00,Meteo,2013-05-10 08:44:00,
2013-05-10 03:49:00,37.0,31.0,30.82,NE,41,3.0,4.0,78,0.00,,,0.00,Meteo,2013-05-10 08:49:00,
2013-05-10 03:54:00,37.0,31.0,30.82,ENE,60,4.0,6.0,78,0.00,,,0.00,Meteo,2013-05-10 08:54:00,
2013-05-10 03:59:00,37.0,31.0,30.82,NNE,31,4.0,7.0,79,0.00,,,0.00,Meteo,2013-05-10 08:59:00,
2013-05-10 04:04:00,37.0,31.0,30.82,NE,44,5.0,7.0,79,0.00,,,0.00,Meteo,2013-05-10 09:04:00,
2013-05-10 04:09:00,37.0,31.0,30.82,NE,34,4.0,8.0,79,0.00,,,0.00,Meteo,2013-05-10 09:09:00,
2013-05-10 04:14:00,37.0,31.0,30.81,ENE,60,3.0,6.0,80,0.00,,,0.00,Meteo,2013-05-10 09:14:00,
2013-05-10 04:19:00,37.0,31.0,30.81,NE,50,4.0,6.0,80,0.00,,,0.00,Meteo,2013-05-10 09:19:00,
2013-05-10 04:24:00,37.0,31.0,30.81,NNE,28,5.0,6.0,80,0.00,,,0.00,Meteo,2013-05-10 09:24:00,
2013-05-10 04:29:00,37.0,31.0,30.81,NE,34,5.0,8.0,80,0.00,,,0.00,Meteo,2013-05-10 09:29:00,
2013-05-10 04:34:00,37.0,31.0,30.81,NNE,29,4.0,6.0,80,0.00,,,0.00,Meteo,2013-05-10 09:34:00,
2013-05-10 04:39:00,37.0,31.0,30.81,NNE,31,4.0,5.0,80,0.00,,,0.00,Meteo,2013-05-10 09:39:00,
2013-05-10 04:44:00,37.0,31.0,30.81,NE,45,6.0,9.0,80,0.00,,,0.00,Meteo,2013-05-10 09:44:00,
2013-05-10 04:49:00,37.0,31.0,30.82,NNE,32,6.0,8.0,79,0.00,,,0.00,Meteo,2013-05-10 09:49:00,
2013-05-10 04:54:00,37.0,31.0,30.82,NE,46,5.0,7.0,79,0.00,,,0.00,Meteo,2013-05-10 09:54:00,
2013-05-10 04:59:00,37.0,31.0,30.82,NE,55,6.0,11.0,79,0.00,,,0.00,Meteo,2013-05-10 09:59:00,
2013-05-10 05:04:00,37.0,31.0,30.81,NE,41,5.0,7.0,79,0.00,,,0.00,Meteo,2013-05-10 10:04:00,
2013-05-10 05:09:00,37.0,31.0,30.81,NE,55,5.0,7.0,79,0.00,,,0.00,Meteo,2013-05-10 10:09:00,
2013-05-10 05:14:00,37.0,31.0,30.81,NE,56,4.0,6.0,80,0.00,,,0.00,Meteo,2013-05-10 10:14:00,
2013-05-10 05:19:00,37.0,31.0,30.81,ENE,60,4.0,5.0,79,0.00,,,0.00,Meteo,2013-05-10 10:19:00,
2013-05-10 05:24:00,37.0,31.0,30.81,ENE,64,6.0,10.0,79,0.00,,,0.00,Meteo,2013-05-10 10:24:00,
2013-05-10 05:29:00,36.0,30.0,30.81,NE,43,4.0,6.0,78,0.00,,,0.00,Meteo,2013-05-10 10:29:00,
2013-05-10 05:34:00,36.0,30.0,30.81,NE,56,5.0,8.0,77,0.00,,,0.00,Meteo,2013-05-10 10:34:00,
2013-05-10 05:39:00,36.0,29.0,30.81,ENE,64,3.0,8.0,76,0.00,,,0.00,Meteo,2013-05-10 10:39:00,
2013-05-10 05:44:00,36.0,29.0,30.81,ENE,64,5.0,8.0,76,0.00,,,0.00,Meteo,2013-05-10 10:44:00,
2013-05-10 05:49:00,36.0,29.0,30.81,NE,56,3.0,5.0,76,0.00,,,0.00,Meteo,2013-05-10 10:49:00,
2013-05-10 05:54:00,36.0,29.0,30.82,ENE,61,6.0,11.0,76,0.00,,,0.00,Meteo,2013-05-10 10:54:00,
2013-05-10 05:59:00,36.0,30.0,30.81,NE,44,6.0,9.0,77,0.00,,,0.00,Meteo,2013-05-10 10:59:00,
2013-05-10 06:04:00,36.0,30.0,30.81,ENE,66,4.0,6.0,77,0.00,,,0.00,Meteo,2013-05-10 11:04:00,
2013-05-10 06:09:00,36.0,30.0,30.81,ENE,73,4.0,6.0,77,0.00,,,0.00,Meteo,2013-05-10 11:09:00,
2013-05-10 06:14:00,36.0,30.0,30.81,NE,53,5.0,8.0,77,0.00,,,0.00,Meteo,2013-05-10 11:14:00,
2013-05-10 06:19:00,36.0,30.0,30.81,ENE,64,4.0,6.0,77,0.00,,,0.00,Meteo,2013-05-10 11:19:00,
2013-05-10 06:24:00,37.0,30.0,30.81,ENE,70,2.0,5.0,77,0.00,,,0.00,Meteo,2013-05-10 11:24:00,
2013-05-10 06:29:00,37.0,30.0,30.81,ENE,68,4.0,8.0,77,0.00,,,0.00,Meteo,2013-05-10 11:29:00,
2013-05-10 06:34:00,37.0,30.0,30.81,NE,42,3.0,5.0,77,0.00,,,0.00,Meteo,2013-05-10 11:34:00,
2013-05-10 06:39:00,37.0,30.0,30.81,ENE,71,8.0,11.0,76,0.00,,,0.00,Meteo,2013-05-10 11:39:00,
2013-05-10 06:44:00,37.0,30.0,30.82,ENE,69,5.0,7.0,76,0.00,,,0.00,Meteo,2013-05-10 11:44:00,
2013-05-10 06:49:00,37.0,30.0,30.82,ENE,61,4.0,7.0,76,0.00,,,0.00,Meteo,2013-05-10 11:49:00,
2013-05-10 06:54:00,37.0,30.0,30.81,NE,37,4.0,6.0,76,0.00,,,0.00,Meteo,2013-05-10 11:54:00,
2013-05-10 06:59:00,38.0,31.0,30.81,ENE,74,5.0,7.0,75,0.00,,,0.00,Meteo,2013-05-10 11:59:00,
2013-05-10 07:04:00,38.0,30.0,30.81,ENE,71,6.0,11.0,74,0.00,,,0.00,Meteo,2013-05-10 12:04:00,
2013-05-10 07:09:00,38.0,30.0,30.81,NE,53,4.0,10.0,72,0.00,,,0.00,Meteo,2013-05-10 12:09:00,
2013-05-10 07:14:00,38.0,29.0,30.81,NE,39,6.0,8.0,70,0.00,,,0.00,Meteo,2013-05-10 12:14:00,
2013-05-10 07:19:00,38.0,29.0,30.82,NE,46,7.0,11.0,70,0.00,,,0.00,Meteo,2013-05-10 12:19:00,
2013-05-10 07:24:00,38.0,29.0,30.81,NE,55,4.0,7.0,71,0.00,,,0.00,Meteo,2013-05-10 12:24:00,
2013-05-10 07:29:00,38.0,30.0,30.82,NE,44,4.0,6.0,72,0.00,,,0.00,Meteo,2013-05-10 12:29:00,
2013-05-10 07:34:00,39.0,31.0,30.82,ENE,63,8.0,10.0,72,0.00,,,0.00,Meteo,2013-05-10 12:34:00,
2013-05-10 07:39:00,39.0,31.0,30.82,ENE,65,5.0,6.0,72,0.00,,,0.00,Meteo,2013-05-10 12:39:00,
2013-05-10 07:44:00,39.0,30.0,30.82,ENE,57,6.0,12.0,71,0.00,,,0.00,Meteo,2013-05-10 12:44:00,
2013-05-10 07:49:00,39.0,30.0,30.82,NE,42,5.0,7.0,71,0.00,,,0.00,Meteo,2013-05-10 12:49:00,
2013-05-10 07:54:00,39.0,30.0,30.82,NE,38,6.0,7.0,70,0.00,,,0.00,Meteo,2013-05-10 12:54:00,
2013-05-10 07:59:00,39.0,30.0,30.82,NE,44,5.0,10.0,69,0.00,,,0.00,Meteo,2013-05-10 12:59:00,
2013-05-10 08:04:00,39.0,30.0,30.82,NE,43,7.0,10.0,69,0.00,,,0.00,Meteo,2013-05-10 13:04:00,
2013-05-10 08:09:00,39.0,30.0,30.82,NNE,15,4.0,6.0,70,0.00,,,0.00,Meteo,2013-05-10 13:09:00,
2013-05-10 08:14:00,39.0,30.0,30.82,NNE,22,4.0,9.0,70,0.00,,,0.00,Meteo,2013-05-10 13:14:00,
2013-05-10 08:19:00,40.0,31.0,30.82,NE,51,5.0,9.0,69,0.00,,,0.00,Meteo,2013-05-10 13:19:00,
2013-05-10 08:24:00,40.0,30.0,30.82,NNE,22,7.0,9.0,68,0.00,,,0.00,Meteo,2013-05-10 13:24:00,
2013-05-10 08:29:00,39.0,30.0,30.82,NE,51,6.0,10.0,69,0.00,,,0.00,Meteo,2013-05-10 13:29:00,
2013-05-10 08:34:00,39.0,30.0,30.82,NE,37,5.0,6.0,70,0.00,,,0.00,Meteo,2013-05-10 13:34:00,
2013-05-10 08:39:00,39.0,30.0,30.82,NNE,24,6.0,9.0,69,0.00,,,0.00,Meteo,2013-05-10 13:39:00,
2013-05-10 08:44:00,39.0,30.0,30.81,ENE,65,7.0,12.0,69,0.00,,,0.00,Meteo,2013-05-10 13:44:00,
2013-05-10 08:49:00,40.0,31.0,30.82,NE,36,5.0,8.0,69,0.00,,,0.00,Meteo,2013-05-10 13:49:00,
2013-05-10 08:54:00,40.0,31.0,30.81,NE,41,5.0,8.0,69,0.00,,,0.00,Meteo,2013-05-10 13:54:00,
2013-05-10 08:59:00,40.0,31.0,30.81,NNE,13,6.0,10.0,69,0.00,,,0.00,Meteo,2013-05-10 13:59:00,
2013-05-10 09:04:00,40.0,30.0,30.81,NE,52,8.0,11.0,68,0.00,,,0.00,Meteo,2013-05-10 14:04:00,
2013-05-10 09:10:00,39.0,29.0,30.81,North,8,5.0,7.0,67,0.00,,,0.00,Meteo,2013-05-10 14:10:00,
2013-05-10 09:15:00,40.0,30.0,30.81,NNE,18,7.0,12.0,67,0.00,,,0.00,Meteo,2013-05-10 14:15:00,
2013-05-10 09:20:00,39.0,29.0,30.81,NE,35,8.0,11.0,67,0.00,,,0.00,Meteo,2013-05-10 14:20:00,
2013-05-10 09:25:00,40.0,30.0,30.81,NNE,29,5.0,8.0,68,0.00,,,0.00,Meteo,2013-05-10 14:25:00,
2013-05-10 09:30:00,40.0,30.0,30.81,NE,45,8.0,11.0,68,0.00,,,0.00,Meteo,2013-05-10 14:30:00,
2013-05-10 09:35:00,40.0,30.0,30.81,NE,36,5.0,8.0,67,0.00,,,0.00,Meteo,2013-05-10 14:35:00,
2013-05-10 09:40:00,39.0,29.0,30.81,NNE,31,5.0,10.0,68,0.00,,,0.00,Meteo,2013-05-10 14:40:00,
2013-05-10 09:45:00,40.0,30.0,30.81,NNE,31,6.0,11.0,68,0.00,,,0.00,Meteo,2013-05-10 14:45:00,
2013-05-10 09:50:00,40.0,30.0,30.81,NNE,33,8.0,11.0,67,0.00,,,0.00,Meteo,2013-05-10 14:50:00,
2013-05-10 09:55:00,40.0,30.0,30.81,North,3,5.0,8.0,67,0.00,,,0.00,Meteo,2013-05-10 14:55:00,
2013-05-10 10:00:00,39.0,29.0,30.81,NNE,13,6.0,9.0,68,0.00,,,0.00,Meteo,2013-05-10 15:00:00,
2013-05-10 10:05:00,40.0,30.0,30.81,NNE,28,7.0,10.0,67,0.00,,,0.00,Meteo,2013-05-10 15:05:00,
2013-05-10 10:10:00,40.0,30.0,30.80,NNE,23,4.0,7.0,68,0.00,,,0.00,Meteo,2013-05-10 15:10:00,
2013-05-10 10:15:00,40.0,30.0,30.80,NE,40,5.0,9.0,67,0.00,,,0.00,Meteo,2013-05-10 15:15:00,
2013-05-10 10:20:00,40.0,30.0,30.80,NNE,19,5.0,7.0,67,0.00,,,0.00,Meteo,2013-05-10 15:20:00,
2013-05-10 10:25:00,40.0,30.0,30.80,NNE,32,6.0,9.0,66,0.00,,,0.00,Meteo,2013-05-10 15:25:00,
2013-05-10 10:30:00,40.0,30.0,30.80,NE,44,7.0,9.0,66,0.00,,,0.00,Meteo,2013-05-10 15:30:00,
2013-05-10 10:35:00,40.0,29.0,30.79,NNE,31,6.0,10.0,65,0.00,,,0.00,Meteo,2013-05-10 15:35:00,
2013-05-10 10:40:00,40.0,30.0,30.79,NNE,30,6.0,9.0,67,0.00,,,0.00,Meteo,2013-05-10 15:40:00,
2013-05-10 10:45:00,40.0,30.0,30.79,NNE,14,6.0,9.0,66,0.00,,,0.00,Meteo,2013-05-10 15:45:00,
2013-05-10 10:50:00,40.0,30.0,30.79,NE,34,5.0,7.0,67,0.00,,,0.00,Meteo,2013-05-10 15:50:00,
2013-05-10 10:55:00,40.0,30.0,30.79,NNE,25,5.0,10.0,66,0.00,,,0.00,Meteo,2013-05-10 15:55:00,
2013-05-10 11:00:00,40.0,30.0,30.79,North,10,6.0,8.0,66,0.00,,,0.00,Meteo,2013-05-10 16:00:00,
2013-05-10 11:05:00,40.0,29.0,30.79,NNE,16,6.0,9.0,65,0.00,,,0.00,Meteo,2013-05-10 16:05:00,
2013-05-10 11:10:00,40.0,30.0,30.79,North,4,6.0,9.0,67,0.00,,,0.00,Meteo,2013-05-10 16:10:00,
2013-05-10 11:15:00,40.0,31.0,30.79,NNE,18,5.0,7.0,69,0.00,,,0.00,Meteo,2013-05-10 16:15:00,
2013-05-10 11:20:00,39.0,29.0,30.80,NNE,13,6.0,8.0,68,0.00,,,0.00,Meteo,2013-05-10 16:20:00,
2013-05-10 11:25:00,40.0,30.0,30.80,North,9,5.0,7.0,67,0.00,,,0.00,Meteo,2013-05-10 16:25:00,
2013-05-10 11:30:00,40.0,30.0,30.79,NE,44,5.0,8.0,68,0.00,,,0.00,Meteo,2013-05-10 16:30:00,
2013-05-10 11:35:00,40.0,30.0,30.79,NNE,32,6.0,8.0,68,0.00,,,0.00,Meteo,2013-05-10 16:35:00,
2013-05-10 11:40:00,40.0,31.0,30.79,NNE,27,6.0,7.0,69,0.00,,,0.00,Meteo,2013-05-10 16:40:00,
2013-05-10 11:45:00,40.0,30.0,30.79,NNE,30,4.0,7.0,67,0.00,,,0.00,Meteo,2013-05-10 16:45:00,
2013-05-10 11:50:00,40.0,31.0,30.79,NE,36,5.0,8.0,69,0.00,,,0.00,Meteo,2013-05-10 16:50:00,
2013-05-10 11:55:00,40.0,30.0,30.79,NE,46,5.0,7.0,66,0.00,,,0.00,Meteo,2013-05-10 16:55:00,
2013-05-10 12:00:00,41.0,30.0,30.79,NE,44,4.0,6.0,64,0.00,,,0.00,Meteo,2013-05-10 17:00:00,
2013-05-10 12:05:00,41.0,30.0,30.79,ENE,66,6.0,9.0,65,0.00,,,0.00,Meteo,2013-05-10 17:05:00,
2013-05-10 12:11:00,41.0,30.0,30.79,North,6,4.0,6.0,64,0.00,,,0.00,Meteo,2013-05-10 17:11:00,
2013-05-10 12:16:00,41.0,29.0,30.79,North,359,5.0,7.0,61,0.00,,,0.00,Meteo,2013-05-10 17:16:00,
2013-05-10 12:21:00,41.0,29.0,30.79,North,355,4.0,5.0,61,0.00,,,0.00,Meteo,2013-05-10 17:21:00,
2013-05-10 12:26:00,42.0,26.0,30.78,NE,44,5.0,10.0,53,0.00,,,0.00,Meteo,2013-05-10 17:26:00,
2013-05-10 12:31:00,42.0,27.0,30.79,NE,47,5.0,7.0,56,0.00,,,0.00,Meteo,2013-05-10 17:31:00,
2013-05-10 12:36:00,42.0,27.0,30.79,North,10,5.0,7.0,55,0.00,,,0.00,Meteo,2013-05-10 17:36:00,
2013-05-10 12:41:00,42.0,29.0,30.78,NE,35,4.0,6.0,59,0.00,,,0.00,Meteo,2013-05-10 17:41:00,
2013-05-10 12:46:00,42.0,30.0,30.79,NE,45,4.0,7.0,61,0.00,,,0.00,Meteo,2013-05-10 17:46:00,
2013-05-10 12:51:00,42.0,29.0,30.79,North,3,4.0,6.0,60,0.00,,,0.00,Meteo,2013-05-10 17:51:00,
2013-05-10 12:56:00,41.0,29.0,30.78,NNE,33,3.0,5.0,61,0.00,,,0.00,Meteo,2013-05-10 17:56:00,
2013-05-10 13:01:00,42.0,30.0,30.77,NNE,32,4.0,5.0,63,0.00,,,0.00,Meteo,2013-05-10 18:01:00,
2013-05-10 13:06:00,43.0,30.0,30.76,ENE,67,5.0,7.0,61,0.00,,,0.00,Meteo,2013-05-10 18:06:00,
2013-05-10 13:11:00,44.0,31.0,30.76,NNE,25,4.0,6.0,59,0.00,,,0.00,Meteo,2013-05-10 18:11:00,
2013-05-10 13:16:00,43.0,29.0,30.75,NE,36,2.0,4.0,58,0.00,,,0.00,Meteo,2013-05-10 18:16:00,
2013-05-10 13:21:00,43.0,30.0,30.74,North,9,4.0,6.0,60,0.00,,,0.00,Meteo,2013-05-10 18:21:00,
2013-05-10 13:26:00,44.0,31.0,30.74,ENE,63,4.0,7.0,59,0.00,,,0.00,Meteo,2013-05-10 18:26:00,
2013-05-10 13:31:00,43.0,30.0,30.74,North,356,7.0,10.0,59,0.00,,,0.00,Meteo,2013-05-10 18:31:00,
2013-05-10 13:36:00,43.0,30.0,30.74,North,353,6.0,8.0,61,0.00,,,0.00,Meteo,2013-05-10 18:36:00,
2013-05-10 13:41:00,43.0,30.0,30.74,North,355,8.0,11.0,59,0.00,,,0.00,Meteo,2013-05-10 18:41:00,
2013-05-10 13:46:00,42.0,30.0,30.74,NNE,24,5.0,10.0,61,0.00,,,0.00,Meteo,2013-05-10 18:46:00,
2013-05-10 13:51:00,42.0,30.0,30.74,North,356,7.0,10.0,61,0.00,,,0.00,Meteo,2013-05-10 18:51:00,
2013-05-10 13:56:00,42.0,29.0,30.74,NNE,14,6.0,8.0,59,0.00,,,0.00,Meteo,2013-05-10 18:56:00,
2013-05-10 14:01:00,43.0,30.0,30.74,NNE,16,4.0,6.0,61,0.00,,,0.00,Meteo,2013-05-10 19:01:00,
2013-05-10 14:06:00,43.0,29.0,30.74,NNE,22,5.0,6.0,58,0.00,,,0.00,Meteo,2013-05-10 19:06:00,
2013-05-10 14:11:00,43.0,30.0,30.74,North,8,4.0,7.0,59,0.00,,,0.00,Meteo,2013-05-10 19:11:00,
2013-05-10 14:16:00,43.0,28.0,30.73,NNE,32,4.0,6.0,56,0.00,,,0.00,Meteo,2013-05-10 19:16:00,
2013-05-10 14:21:00,43.0,29.0,30.73,NNE,19,5.0,9.0,57,0.00,,,0.00,Meteo,2013-05-10 19:21:00,
2013-05-10 14:26:00,43.0,29.0,30.73,North,8,4.0,7.0,57,0.00,,,0.00,Meteo,2013-05-10 19:26:00,
2013-05-10 14:31:00,43.0,29.0,30.73,NNW,348,7.0,9.0,57,0.00,,,0.00,Meteo,2013-05-10 19:31:00,
2013-05-10 14:36:00,43.0,30.0,30.73,North,3,4.0,5.0,59,0.00,,,0.00,Meteo,2013-05-10 19:36:00,
2013-05-10 14:41:00,43.0,30.0,30.73,NNE,28,4.0,6.0,59,0.00,,,0.00,Meteo,2013-05-10 19:41:00,
2013-05-10 14:46:00,42.0,28.0,30.73,North,10,4.0,7.0,58,0.00,,,0.00,Meteo,2013-05-10 19:46:00,
2013-05-10 14:51:00,43.0,31.0,30.73,NE,42,3.0,6.0,62,0.00,,,0.00,Meteo,2013-05-10 19:51:00,
2013-05-10 14:56:00,44.0,30.0,30.72,NNE,32,4.0,6.0,58,0.00,,,0.00,Meteo,2013-05-10 19:56:00,
2013-05-10 15:01:00,44.0,30.0,30.72,NNE,20,4.0,5.0,58,0.00,,,0.00,Meteo,2013-05-10 20:01:00,
2013-05-10 15:06:00,44.0,31.0,30.71,North,4,4.0,8.0,59,0.00,,,0.00,Meteo,2013-05-10 20:06:00,
2013-05-10 15:11:00,44.0,30.0,30.71,NNE,27,5.0,7.0,58,0.00,,,0.00,Meteo,2013-05-10 20:11:00,
2013-05-10 15:16:00,45.0,30.0,30.71,NNE,13,3.0,7.0,55,0.00,,,0.00,Meteo,2013-05-10 20:16:00,
2013-05-10 15:21:00,44.0,30.0,30.70,North,9,5.0,9.0,58,0.00,,,0.00,Meteo,2013-05-10 20:21:00,
2013-05-10 15:26:00,44.0,30.0,30.70,North,356,4.0,6.0,58,0.00,,,0.00,Meteo,2013-05-10 20:26:00,
2013-05-10 15:31:00,44.0,29.0,30.70,NE,51,3.0,6.0,56,0.00,,,0.00,Meteo,2013-05-10 20:31:00,
2013-05-10 15:36:00,45.0,30.0,30.70,North,1,4.0,7.0,56,0.00,,,0.00,Meteo,2013-05-10 20:36:00,
2013-05-10 15:41:00,44.0,30.0,30.69,North,8,4.0,6.0,57,0.00,,,0.00,Meteo,2013-05-10 20:41:00,
2013-05-10 15:46:00,44.0,28.0,30.69,NNE,19,5.0,8.0,54,0.00,,,0.00,Meteo,2013-05-10 20:46:00,
2013-05-10 15:51:00,45.0,29.0,30.68,North,11,4.0,5.0,54,0.00,,,0.00,Meteo,2013-05-10 20:51:00,
2013-05-10 15:56:00,45.0,29.0,30.69,NNE,22,4.0,5.0,54,0.00,,,0.00,Meteo,2013-05-10 20:56:00,
2013-05-10 16:01:00,45.0,29.0,30.69,North,1,7.0,11.0,54,0.00,,,0.00,Meteo,2013-05-10 21:01:00,
2013-05-10 16:06:00,45.0,29.0,30.69,NE,44,5.0,8.0,54,0.00,,,0.00,Meteo,2013-05-10 21:06:00,
2013-05-10 16:11:00,45.0,29.0,30.68,NE,42,5.0,7.0,54,0.00,,,0.00,Meteo,2013-05-10 21:11:00,
2013-05-10 16:16:00,45.0,29.0,30.68,NE,46,4.0,5.0,53,0.00,,,0.00,Meteo,2013-05-10 21:16:00,
2013-05-10 16:21:00,45.0,28.0,30.67,NE,38,5.0,7.0,51,0.00,,,0.00,Meteo,2013-05-10 21:21:00,
2013-05-10 16:26:00,45.0,27.0,30.67,North,6,4.0,5.0,50,0.00,,,0.00,Meteo,2013-05-10 21:26:00,
2013-05-10 16:31:00,45.0,27.0,30.67,North,6,4.0,6.0,50,0.00,,,0.00,Meteo,2013-05-10 21:31:00,
2013-05-10 16:37:00,45.0,29.0,30.67,North,358,7.0,9.0,53,0.00,,,0.00,Meteo,2013-05-10 21:37:00,
2013-05-10 16:42:00,45.0,30.0,30.66,NE,39,4.0,6.0,55,0.00,,,0.00,Meteo,2013-05-10 21:42:00,
2013-05-10 16:47:00,44.0,28.0,30.67,North,1,7.0,10.0,53,0.00,,,0.00,Meteo,2013-05-10 21:47:00,
2013-05-10 16:52:00,44.0,29.0,30.67,North,4,4.0,5.0,55,0.00,,,0.00,Meteo,2013-05-10 21:52:00,
2013-05-10 16:57:00,44.0,29.0,30.66,North,352,7.0,9.0,56,0.00,,,0.00,Meteo,2013-05-10 21:57:00,
2013-05-10 16:58:00,44.0,30.0,30.66,North,9,4.0,6.0,57,0.00,,,0.00,Meteo,2013-05-10 21:58:00,
2013-05-10 16:59:00,44.0,30.0,30.66,NE,34,4.0,6.0,58,0.00,,,0.00,Meteo,2013-05-10 21:59:00,
2013-05-10 17:00:00,44.0,30.0,30.66,NNE,15,4.0,6.0,57,0.00,,,0.00,Meteo,2013-05-10 22:00:00,
2013-05-10 17:03:00,44.0,30.0,30.66,NNW,348,6.0,8.0,57,0.00,,,0.00,Meteo,2013-05-10 22:03:00,
2013-05-10 17:07:00,44.0,30.0,30.66,North,7,5.0,6.0,58,0.00,,,0.00,Meteo,2013-05-10 22:07:00,
2013-05-10 17:12:00,44.0,30.0,30.66,North,357,5.0,7.0,58,0.00,,,0.00,Meteo,2013-05-10 22:12:00,
2013-05-10 17:17:00,43.0,28.0,30.66,NNE,18,4.0,6.0,56,0.00,,,0.00,Meteo,2013-05-10 22:17:00,
2013-05-10 17:22:00,43.0,29.0,30.66,North,11,4.0,6.0,58,0.00,,,0.00,Meteo,2013-05-10 22:22:00,
2013-05-10 17:27:00,43.0,30.0,30.66,NE,40,4.0,5.0,59,0.00,,,0.00,Meteo,2013-05-10 22:27:00,
2013-05-10 17:32:00,43.0,29.0,30.65,NE,38,3.0,5.0,57,0.00,,,0.00,Meteo,2013-05-10 22:32:00,
2013-05-10 17:37:00,44.0,31.0,30.65,North,10,3.0,4.0,59,0.00,,,0.00,Meteo,2013-05-10 22:37:00,
2013-05-10 17:42:00,44.0,30.0,30.64,North,11,3.0,4.0,57,0.00,,,0.00,Meteo,2013-05-10 22:42:00,
2013-05-10 17:47:00,44.0,29.0,30.65,North,6,2.0,3.0,56,0.00,,,0.00,Meteo,2013-05-10 22:47:00,
2013-05-10 17:52:00,44.0,30.0,30.65,North,353,6.0,10.0,58,0.00,,,0.00,Meteo,2013-05-10 22:52:00,
2013-05-10 17:57:00,43.0,30.0,30.64,NNE,12,4.0,5.0,59,0.00,,,0.00,Meteo,2013-05-10 22:57:00,
2013-05-10 18:03:00,43.0,30.0,30.64,North,359,3.0,4.0,59,0.00,,,0.00,Meteo,2013-05-10 23:03:00,
2013-05-10 18:08:00,42.0,30.0,30.64,North,11,2.0,3.0,61,0.00,,,0.00,Meteo,2013-05-10 23:08:00,
2013-05-10 18:13:00,42.0,30.0,30.64,North,360,4.0,8.0,61,0.00,,,0.00,Meteo,2013-05-10 23:13:00,
2013-05-10 18:18:00,42.0,30.0,30.63,NNE,17,4.0,5.0,62,0.00,,,0.00,Meteo,2013-05-10 23:18:00,
2013-05-10 18:23:00,42.0,31.0,30.63,NNE,19,2.0,3.0,64,0.00,,,0.00,Meteo,2013-05-10 23:23:00,
2013-05-10 18:28:00,41.0,29.0,30.63,North,355,5.0,8.0,63,0.00,,,0.00,Meteo,2013-05-10 23:28:00,
2013-05-10 18:33:00,41.0,30.0,30.63,North,9,3.0,4.0,64,0.00,,,0.00,Meteo,2013-05-10 23:33:00,
2013-05-10 18:39:00,40.0,29.0,30.63,North,353,4.0,6.0,65,0.00,,,0.00,Meteo,2013-05-10 23:39:00,
2013-05-10 18:44:00,40.0,30.0,30.63,NNE,21,3.0,3.0,66,0.00,,,0.00,Meteo,2013-05-10 23:44:00,
2013-05-10 18:49:00,40.0,30.0,30.63,North,353,3.0,5.0,66,0.00,,,0.00,Meteo,2013-05-10 23:49:00,
2013-05-10 18:54:00,40.0,30.0,30.64,North,7,3.0,4.0,66,0.00,,,0.00,Meteo,2013-05-10 23:54:00,
2013-05-10 18:59:00,40.0,29.0,30.63,ENE,57,3.0,5.0,65,0.00,,,0.00,Meteo,2013-05-10 23:59:00,
2013-05-10 19:04:00,40.0,29.0,30.63,NNE,33,2.0,6.0,64,0.00,,,0.00,Meteo,2013-05-11 00:04:00,
2013-05-10 19:09:00,40.0,29.0,30.63,North,0,2.0,3.0,65,0.00,,,0.00,Meteo,2013-05-11 00:09:00,
2013-05-10 19:14:00,40.0,29.0,30.63,NE,50,3.0,6.0,65,0.00,,,0.00,Meteo,2013-05-11 00:14:00,
2013-05-10 19:19:00,40.0,29.0,30.63,NE,47,2.0,3.0,65,0.00,,,0.00,Meteo,2013-05-11 00:19:00,
2013-05-10 19:24:00,39.0,28.0,30.64,North,8,2.0,4.0,65,0.00,,,0.00,Meteo,2013-05-11 00:24:00,
2013-05-10 19:29:00,39.0,29.0,30.63,NE,42,3.0,6.0,67,0.00,,,0.00,Meteo,2013-05-11 00:29:00,
2013-05-10 19:34:00,39.0,28.0,30.63,NE,41,3.0,5.0,65,0.00,,,0.00,Meteo,2013-05-11 00:34:00,
2013-05-10 19:39:00,39.0,28.0,30.62,ENE,70,5.0,7.0,64,0.00,,,0.00,Meteo,2013-05-11 00:39:00,
2013-05-10 19:44:00,39.0,27.0,30.62,ENE,70,4.0,6.0,63,0.00,,,0.00,Meteo,2013-05-11 00:44:00,
2013-05-10 19:49:00,39.0,27.0,30.61,East,91,3.0,4.0,62,0.00,,,0.00,Meteo,2013-05-11 00:49:00,
2013-05-10 19:54:00,39.0,27.0,30.61,ENE,77,3.0,5.0,61,0.00,,,0.00,Meteo,2013-05-11 00:54:00,
2013-05-10 19:59:00,39.0,27.0,30.61,ENE,60,2.0,3.0,61,0.00,,,0.00,Meteo,2013-05-11 00:59:00,
2013-05-10 20:04:00,39.0,27.0,30.61,East,95,3.0,4.0,62,0.00,,,0.00,Meteo,2013-05-11 01:04:00,
2013-05-10 20:09:00,39.0,27.0,30.61,ENE,61,2.0,4.0,63,0.00,,,0.00,Meteo,2013-05-11 01:09:00,
2013-05-10 20:14:00,39.0,27.0,30.61,ENE,74,3.0,5.0,63,0.00,,,0.00,Meteo,2013-05-11 01:14:00,
2013-05-10 20:19:00,39.0,27.0,30.61,ENE,74,3.0,4.0,62,0.00,,,0.00,Meteo,2013-05-11 01:19:00,
2013-05-10 20:24:00,39.0,27.0,30.60,ENE,78,2.0,4.0,62,0.00,,,0.00,Meteo,2013-05-11 01:24:00,
2013-05-10 20:29:00,39.0,27.0,30.60,East,81,2.0,4.0,61,0.00,,,0.00,Meteo,2013-05-11 01:29:00,
2013-05-10 20:34:00,39.0,27.0,30.59,East,88,1.0,3.0,62,0.00,,,0.00,Meteo,2013-05-11 01:34:00,
2013-05-10 20:39:00,39.0,27.0,30.59,East,84,2.0,3.0,61,0.00,,,0.00,Meteo,2013-05-11 01:39:00,
2013-05-10 20:44:00,39.0,27.0,30.59,East,89,2.0,4.0,61,0.00,,,0.00,Meteo,2013-05-11 01:44:00,
2013-05-10 20:49:00,38.0,25.0,30.58,East,95,0.0,1.0,60,0.00,,,0.00,Meteo,2013-05-11 01:49:00,
2013-05-10 20:54:00,38.0,26.0,30.58,East,96,1.0,2.0,61,0.00,,,0.00,Meteo,2013-05-11 01:54:00,
2013-05-10 20:59:00,38.0,25.0,30.58,North,0,0.0,0.0,60,0.00,,,0.00,Meteo,2013-05-11 01:59:00,
2013-05-10 21:04:00,38.0,26.0,30.58,North,0,0.0,0.0,61,0.00,,,0.00,Meteo,2013-05-11 02:04:00,
2013-05-10 21:09:00,38.0,26.0,30.57,ENE,77,1.0,1.0,62,0.00,,,0.00,Meteo,2013-05-11 02:09:00,
2013-05-10 21:14:00,38.0,26.0,30.57,East,93,1.0,3.0,62,0.00,,,0.00,Meteo,2013-05-11 02:14:00,
2013-05-10 21:19:00,38.0,27.0,30.58,East,87,0.0,1.0,63,0.00,,,0.00,Meteo,2013-05-11 02:19:00,
2013-05-10 21:24:00,38.0,26.0,30.58,North,0,0.0,0.0,62,0.00,,,0.00,Meteo,2013-05-11 02:24:00,
2013-05-10 21:29:00,38.0,27.0,30.57,SE,134,0.0,1.0,63,0.00,,,0.00,Meteo,2013-05-11 02:29:00,
2013-05-10 21:34:00,38.0,27.0,30.58,SE,134,0.0,1.0,63,0.00,,,0.00,Meteo,2013-05-11 02:34:00,
2013-05-10 21:39:00,38.0,27.0,30.57,SE,134,0.0,1.0,64,0.00,,,0.00,Meteo,2013-05-11 02:39:00,
2013-05-10 21:44:00,38.0,27.0,30.57,SE,134,0.0,1.0,64,0.00,,,0.00,Meteo,2013-05-11 02:44:00,
2013-05-10 21:49:00,38.0,27.0,30.57,North,0,0.0,0.0,64,0.00,,,0.00,Meteo,2013-05-11 02:49:00,
2013-05-10 21:54:00,38.0,27.0,30.57,SE,135,0.0,1.0,64,0.00,,,0.00,Meteo,2013-05-11 02:54:00,
2013-05-10 21:59:00,38.0,27.0,30.57,North,0,0.0,0.0,63,0.00,,,0.00,Meteo,2013-05-11 02:59:00,
2013-05-10 22:04:00,38.0,27.0,30.56,SE,135,0.0,1.0,64,0.00,,,0.00,Meteo,2013-05-11 03:04:00,
2013-05-10 22:09:00,38.0,27.0,30.56,North,0,0.0,0.0,64,0.00,,,0.00,Meteo,2013-05-11 03:09:00,
2013-05-10 22:14:00,38.0,27.0,30.56,North,0,0.0,0.0,63,0.00,,,0.00,Meteo,2013-05-11 03:14:00,
2013-05-10 22:19:00,38.0,27.0,30.56,North,0,0.0,0.0,63,0.00,,,0.00,Meteo,2013-05-11 03:19:00,
2013-05-10 22:24:00,38.0,26.0,30.56,SE,135,0.0,2.0,62,0.00,,,0.00,Meteo,2013-05-11 03:24:00,
2013-05-10 22:29:00,38.0,27.0,30.56,NW,315,1.0,3.0,63,0.00,,,0.00,Meteo,2013-05-11 03:29:00,
2013-05-10 22:34:00,38.0,27.0,30.56,NNW,339,2.0,3.0,63,0.00,,,0.00,Meteo,2013-05-11 03:34:00,
2013-05-10 22:39:00,38.0,27.0,30.55,NW,313,0.0,1.0,64,0.00,,,0.00,Meteo,2013-05-11 03:39:00,
2013-05-10 22:44:00,38.0,27.0,30.54,NW,313,1.0,2.0,64,0.00,,,0.00,Meteo,2013-05-11 03:44:00,
2013-05-10 22:49:00,37.0,26.0,30.54,ENE,62,0.0,1.0,64,0.00,,,0.00,Meteo,2013-05-11 03:49:00,
2013-05-10 22:54:00,37.0,26.0,30.54,ENE,61,1.0,2.0,63,0.00,,,0.00,Meteo,2013-05-11 03:54:00,
2013-05-10 22:59:00,37.0,26.0,30.54,ENE,60,0.0,1.0,63,0.00,,,0.00,Meteo,2013-05-11 03:59:00,
2013-05-10 23:01:00,37.0,26.0,30.53,North,0,0.0,2.0,63,0.00,,,0.00,Meteo,2013-05-11 04:01:00,
2013-05-10 23:03:00,37.0,26.0,30.53,North,0,1.0,2.0,64,0.00,,,0.00,Meteo,2013-05-11 04:03:00,
2013-05-10 23:06:00,37.0,26.0,30.53,North,0,1.0,2.0,64,0.00,,,0.00,Meteo,2013-05-11 04:06:00,
2013-05-10 23:07:00,38.0,27.0,30.53,North,0,0.0,1.0,64,0.00,,,0.00,Meteo,2013-05-11 04:07:00,
2013-05-10 23:09:00,38.0,27.0,30.53,North,0,0.0,0.0,63,0.00,,,0.00,Meteo,2013-05-11 04:09:00,
2013-05-10 23:14:00,38.0,26.0,30.53,North,0,1.0,2.0,62,0.00,,,0.00,Meteo,2013-05-11 04:14:00,
2013-05-10 23:19:00,38.0,27.0,30.52,North,0,1.0,2.0,64,0.00,,,0.00,Meteo,2013-05-11 04:19:00,
2013-05-10 23:24:00,38.0,27.0,30.53,WNW,297,1.0,2.0,63,0.00,,,0.00,Meteo,2013-05-11 04:24:00,
2013-05-10 23:29:00,38.0,27.0,30.53,WNW,292,0.0,1.0,65,0.00,,,0.00,Meteo,2013-05-11 04:29:00,
2013-05-10 23:34:00,38.0,28.0,30.53,North,0,0.0,0.0,66,0.00,,,0.00,Meteo,2013-05-11 04:34:00,
2013-05-10 23:39:00,38.0,28.0,30.53,WNW,292,1.0,2.0,67,0.00,,,0.00,Meteo,2013-05-11 04:39:00,
2013-05-10 23:44:00,38.0,28.0,30.52,North,0,0.0,0.0,66,0.00,,,0.00,Meteo,2013-05-11 04:44:00,
2013-05-10 23:49:00,37.0,27.0,30.51,WNW,292,1.0,2.0,67,0.00,,,0.00,Meteo,2013-05-11 04:49:00,
2013-05-10 23:54:00,37.0,27.0,30.52,North,0,0.0,0.0,66,0.00,,,0.00,Meteo,2013-05-11 04:54:00,
2013-05-10 23:59:00,37.0,27.0,30.51,North,0,0.0,0.0,67,0.00,,,0.00,Meteo,2013-05-11 04:59:00,